Time;durP1;ratioP1;P1;durP2;ratioP2;P2;SDS_P1;SDS_P2;PMS_P1;PMS_P2;Temp;Humidity;BMP_temperature;BMP_pressure;BME280_temperature;BME280_humidity;BME280_pressure;Samples;Min_cycle;Max_cycle;Signal;HPM_P1;HPM_P2
2021/01/28 00:01:14;;;;;;;5.07;4.50;;;6.20;99.90;;;;;;5032052;28;20327;-62
2021/01/28 00:03:40;;;;;;;5.30;4.80;;;6.30;99.90;;;;;;5032966;28;20269;-62
2021/01/28 00:06:08;;;;;;;5.73;5.13;;;6.30;99.90;;;;;;5032777;28;20207;-62
2021/01/28 00:08:34;;;;;;;5.40;4.90;;;6.40;99.90;;;;;;5031698;28;20206;-61
2021/01/28 00:11:01;;;;;;;5.27;4.77;;;6.40;99.90;;;;;;5031544;28;20206;-61
2021/01/28 00:13:28;;;;;;;7.70;4.97;;;6.50;99.90;;;;;;5031542;28;20284;-62
2021/01/28 00:15:55;;;;;;;6.80;5.10;;;6.50;99.90;;;;;;5031813;28;20367;-62
2021/01/28 00:18:21;;;;;;;5.60;4.90;;;6.50;99.90;;;;;;5031855;28;20206;-61
2021/01/28 00:20:49;;;;;;;4.93;4.43;;;6.60;99.90;;;;;;5032122;28;20210;-62
2021/01/28 00:23:17;;;;;;;6.20;5.00;;;6.60;99.90;;;;;;5031621;28;20233;-63
2021/01/28 00:25:43;;;;;;;5.30;4.77;;;6.60;99.90;;;;;;5031928;28;20206;-62
2021/01/28 00:28:12;;;;;;;6.10;4.80;;;6.60;99.90;;;;;;5031936;28;20214;-62
2021/01/28 00:30:41;;;;;;;5.30;4.53;;;6.70;99.90;;;;;;5032009;28;20288;-62
2021/01/28 00:33:08;;;;;;;5.00;4.30;;;6.70;99.90;;;;;;5031750;28;20234;-62
2021/01/28 00:35:36;;;;;;;5.03;4.53;;;6.40;99.90;;;;;;5031893;28;20225;-62
2021/01/28 00:38:05;;;;;;;5.10;4.57;;;6.20;99.90;;;;;;5031603;28;20257;-60
2021/01/28 00:40:32;;;;;;;5.83;4.60;;;6.20;99.90;;;;;;5031690;28;20257;-62
2021/01/28 00:42:59;;;;;;;5.67;4.20;;;6.10;99.90;;;;;;5031563;28;20256;-62
2021/01/28 00:45:27;;;;;;;4.83;4.30;;;6.10;99.90;;;;;;5031422;28;20213;-62
2021/01/28 00:47:55;;;;;;;5.77;4.20;;;6.20;99.90;;;;;;5031428;28;20206;-62
2021/01/28 00:50:25;;;;;;;5.07;4.57;;;6.30;99.90;;;;;;5031455;28;20218;-62
2021/01/28 00:52:51;;;;;;;5.43;4.37;;;6.30;99.90;;;;;;5030966;28;20299;-62
2021/01/28 00:55:19;;;;;;;5.17;4.07;;;6.30;99.90;;;;;;5030986;28;20678;-62
2021/01/28 00:57:45;;;;;;;4.77;4.27;;;6.40;99.90;;;;;;5031231;28;20283;-62
2021/01/28 01:00:15;;;;;;;5.27;4.23;;;6.40;99.90;;;;;;5031024;28;20688;-61
2021/01/28 01:02:42;;;;;;;4.43;3.80;;;6.40;99.90;;;;;;5033253;28;20248;-61
2021/01/28 01:05:11;;;;;;;4.13;3.73;;;6.50;99.90;;;;;;5034887;28;20740;-61
2021/01/28 01:07:37;;;;;;;4.50;3.73;;;6.50;99.90;;;;;;5034843;28;20639;-62
2021/01/28 01:10:06;;;;;;;4.30;3.83;;;6.50;99.90;;;;;;5034967;28;20217;-62
2021/01/28 01:12:32;;;;;;;4.70;3.63;;;6.40;99.90;;;;;;5034749;28;20710;-62
2021/01/28 01:14:58;;;;;;;4.70;3.90;;;6.40;99.90;;;;;;5034763;28;20210;-62
2021/01/28 01:17:25;;;;;;;3.93;3.23;;;6.30;99.90;;;;;;5034827;28;20214;-62
2021/01/28 01:19:51;;;;;;;3.63;3.20;;;6.20;99.90;;;;;;5034702;28;20210;-62
2021/01/28 01:22:18;;;;;;;3.33;3.03;;;6.10;99.90;;;;;;5034953;28;20210;-62
2021/01/28 01:24:45;;;;;;;3.40;2.67;;;6.10;99.90;;;;;;5034710;28;20222;-60
2021/01/28 01:27:11;;;;;;;3.83;3.03;;;5.90;99.90;;;;;;5034673;28;20209;-62
2021/01/28 01:29:37;;;;;;;4.10;3.00;;;5.90;99.90;;;;;;5034571;28;20213;-62
2021/01/28 01:32:03;;;;;;;3.93;3.13;;;6.00;99.90;;;;;;5034165;28;20219;-62
2021/01/28 01:34:30;;;;;;;5.10;3.37;;;6.10;99.90;;;;;;5034233;28;20206;-62
2021/01/28 01:36:56;;;;;;;4.00;3.50;;;6.10;99.90;;;;;;5034927;28;20567;-62
2021/01/28 01:39:23;;;;;;;4.10;3.50;;;6.20;99.90;;;;;;5035095;28;20213;-62
2021/01/28 01:41:49;;;;;;;4.00;3.57;;;6.20;99.90;;;;;;5034656;28;20206;-62
2021/01/28 01:44:15;;;;;;;4.80;3.80;;;6.20;99.90;;;;;;5034212;28;20315;-62
2021/01/28 01:46:41;;;;;;;4.13;3.70;;;6.00;99.90;;;;;;5034492;28;20214;-62
2021/01/28 01:49:13;;;;;;;5.27;4.37;;;5.90;99.90;;;;;;5034809;28;20214;-62
2021/01/28 01:51:42;;;;;;;4.80;4.33;;;5.90;99.90;;;;;;5034549;28;20214;-62
2021/01/28 01:54:12;;;;;;;4.57;4.17;;;6.00;99.90;;;;;;5033970;28;20713;-65
2021/01/28 01:56:43;;;;;;;4.73;4.10;;;5.90;99.90;;;;;;5034071;28;20586;-62
2021/01/28 01:59:13;;;;;;;5.40;4.13;;;5.80;99.90;;;;;;5033959;28;20206;-62
2021/01/28 02:01:43;;;;;;;4.97;4.10;;;5.80;99.90;;;;;;5034763;28;20217;-62
2021/01/28 02:04:11;;;;;;;4.90;3.83;;;5.90;99.90;;;;;;5034866;28;20737;-62
2021/01/28 02:06:41;;;;;;;6.37;4.80;;;5.90;99.90;;;;;;5034922;28;20582;-62
2021/01/28 02:09:10;;;;;;;7.33;4.80;;;6.00;99.90;;;;;;5034501;28;20210;-62
2021/01/28 02:11:37;;;;;;;5.47;4.70;;;5.90;99.90;;;;;;5034550;28;20202;-62
2021/01/28 02:14:07;;;;;;;6.77;4.83;;;5.90;99.90;;;;;;5033634;28;20222;-62
2021/01/28 02:16:37;;;;;;;6.53;5.37;;;5.90;99.90;;;;;;5034789;28;20581;-61
2021/01/28 02:19:12;;;;;;;6.57;4.93;;;5.60;99.90;;;;;;5034600;28;20216;-60
2021/01/28 02:21:39;;;;;;;6.57;5.30;;;5.40;99.90;;;;;;5034529;28;20206;-60
2021/01/28 02:24:30;;;;;;;7.43;5.07;;;5.30;99.90;;;;;;5034239;28;20234;-60
2021/01/28 02:26:57;;;;;;;6.97;4.83;;;5.30;99.90;;;;;;5034274;28;20209;-61
2021/01/28 02:29:24;;;;;;;5.63;5.03;;;5.30;99.90;;;;;;5034340;28;20206;-61
2021/01/28 02:31:54;;;;;;;6.93;5.37;;;5.20;99.90;;;;;;5034175;28;20203;-60
2021/01/28 02:34:21;;;;;;;5.40;4.90;;;5.20;99.90;;;;;;5033798;28;20230;-60
2021/01/28 02:36:50;;;;;;;6.53;5.23;;;5.00;99.90;;;;;;5034392;28;20213;-60
2021/01/28 02:39:19;;;;;;;6.83;5.20;;;4.80;99.90;;;;;;5034363;28;20222;-60
2021/01/28 02:41:52;;;;;;;5.63;4.70;;;4.60;99.90;;;;;;5033885;28;20264;-60
2021/01/28 02:44:19;;;;;;;7.23;5.40;;;4.50;99.90;;;;;;5056511;22;20234;-62
2021/01/28 02:46:45;;;;;;;8.53;4.97;;;4.40;99.90;;;;;;5032919;28;20210;-62
2021/01/28 02:49:11;;;;;;;6.33;5.40;;;4.60;99.90;;;;;;5032755;28;20202;-62
2021/01/28 02:51:37;;;;;;;5.90;5.30;;;4.70;99.90;;;;;;5033148;28;20217;-62
2021/01/28 02:54:04;;;;;;;7.67;5.77;;;4.80;99.90;;;;;;5032659;28;20234;-62
2021/01/28 02:56:30;;;;;;;6.07;4.97;;;4.90;99.90;;;;;;5032869;28;20221;-62
2021/01/28 02:58:56;;;;;;;6.73;5.20;;;5.00;99.90;;;;;;5032582;28;20245;-62
2021/01/28 03:01:23;;;;;;;7.67;5.50;;;5.10;99.90;;;;;;5032637;28;20217;-62
2021/01/28 03:03:50;;;;;;;6.17;5.20;;;5.10;99.90;;;;;;5032138;28;20223;-62
2021/01/28 03:06:16;;;;;;;6.33;5.33;;;5.20;99.90;;;;;;5032647;28;20633;-62
2021/01/28 03:08:43;;;;;;;6.87;5.27;;;5.30;99.90;;;;;;5032717;28;20202;-62
2021/01/28 03:11:09;;;;;;;6.10;5.40;;;5.30;99.90;;;;;;5032423;28;20211;-62
2021/01/28 03:13:35;;;;;;;6.40;5.43;;;5.30;99.90;;;;;;5032058;28;20608;-62
2021/01/28 03:16:01;;;;;;;6.23;5.13;;;5.30;99.90;;;;;;5032267;28;20210;-62
2021/01/28 03:18:29;;;;;;;5.77;5.17;;;5.10;99.90;;;;;;5032072;28;20202;-62
2021/01/28 03:20:55;;;;;;;6.30;5.63;;;5.00;99.90;;;;;;5032375;28;20206;-62
2021/01/28 03:23:21;;;;;;;5.33;4.73;;;4.90;99.90;;;;;;5032287;28;20245;-62
2021/01/28 03:25:48;;;;;;;5.43;4.93;;;4.90;99.90;;;;;;5031975;28;20628;-62
2021/01/28 03:28:15;;;;;;;5.80;5.03;;;5.00;99.90;;;;;;5031988;28;20206;-62
2021/01/28 03:30:43;;;;;;;5.47;4.73;;;5.10;99.90;;;;;;5032040;28;20697;-62
2021/01/28 03:33:12;;;;;;;7.53;5.53;;;5.10;99.90;;;;;;5031725;28;20230;-62
2021/01/28 03:35:39;;;;;;;6.23;5.10;;;5.20;99.90;;;;;;5031778;28;20670;-62
2021/01/28 03:38:07;;;;;;;8.37;5.27;;;5.30;99.90;;;;;;5031841;28;20213;-62
2021/01/28 03:40:34;;;;;;;7.57;4.90;;;5.40;99.90;;;;;;5031855;28;20206;-62
2021/01/28 03:43:01;;;;;;;5.27;4.53;;;5.50;99.90;;;;;;5031623;28;20234;-62
2021/01/28 03:45:27;;;;;;;4.97;4.27;;;5.50;99.90;;;;;;5031484;28;20206;-62
2021/01/28 03:47:54;;;;;;;5.97;4.87;;;5.50;99.90;;;;;;5031454;28;20686;-62
2021/01/28 03:50:22;;;;;;;5.80;4.47;;;5.60;99.90;;;;;;5031671;28;20592;-62
2021/01/28 03:52:49;;;;;;;4.90;4.40;;;5.60;99.90;;;;;;5031589;28;20226;-62
2021/01/28 03:55:16;;;;;;;5.47;4.40;;;5.70;99.90;;;;;;5031516;28;20570;-62
2021/01/28 03:57:45;;;;;;;5.30;4.80;;;5.60;99.90;;;;;;5032330;28;20206;-62
2021/01/28 04:00:14;;;;;;;5.27;4.63;;;5.70;99.90;;;;;;5031526;28;20210;-62
2021/01/28 04:02:40;;;;;;;5.53;4.50;;;5.70;99.90;;;;;;5031475;28;20225;-62
2021/01/28 04:05:08;;;;;;;6.07;4.30;;;5.70;99.90;;;;;;5031595;28;20206;-62
2021/01/28 04:07:34;;;;;;;5.00;4.30;;;5.70;99.90;;;;;;5031600;28;20210;-62
2021/01/28 04:10:01;;;;;;;5.90;4.80;;;5.70;99.90;;;;;;5031401;28;20210;-62
2021/01/28 04:12:27;;;;;;;5.93;3.70;;;5.70;99.90;;;;;;5031112;28;20606;-62
2021/01/28 04:14:53;;;;;;;4.83;3.73;;;5.60;99.90;;;;;;5031606;28;20206;-62
2021/01/28 04:17:19;;;;;;;3.93;3.10;;;5.60;99.90;;;;;;5032001;28;20217;-62
2021/01/28 04:19:45;;;;;;;3.73;3.23;;;5.60;99.90;;;;;;5031900;28;20206;-62
2021/01/28 04:22:12;;;;;;;3.60;3.10;;;5.80;99.90;;;;;;5031608;28;20202;-62
2021/01/28 04:24:38;;;;;;;4.77;2.60;;;5.90;99.90;;;;;;5031341;28;20230;-62
2021/01/28 04:27:05;;;;;;;3.40;2.40;;;5.90;99.90;;;;;;5031431;28;20476;-62
2021/01/28 04:29:32;;;;;;;3.40;2.87;;;5.90;99.90;;;;;;5031205;28;20213;-62
2021/01/28 04:31:58;;;;;;;2.90;2.60;;;5.90;99.90;;;;;;5031134;28;20210;-62
2021/01/28 04:34:25;;;;;;;2.87;2.63;;;6.00;99.90;;;;;;5031236;28;20406;-62
2021/01/28 04:36:51;;;;;;;3.53;2.83;;;6.10;99.90;;;;;;5030794;28;20210;-62
2021/01/28 04:39:17;;;;;;;3.90;3.07;;;6.20;99.90;;;;;;5031357;28;20253;-62
2021/01/28 04:41:44;;;;;;;3.03;2.63;;;6.30;99.90;;;;;;5030879;28;20210;-62
2021/01/28 04:44:11;;;;;;;3.13;2.50;;;6.30;99.90;;;;;;5030591;28;20237;-62
2021/01/28 04:46:40;;;;;;;2.40;2.20;;;6.40;99.90;;;;;;5030868;28;20670;-62
2021/01/28 04:49:12;;;;;;;2.73;2.00;;;6.40;99.90;;;;;;5030948;28;20242;-62
2021/01/28 04:51:40;;;;;;;2.43;2.23;;;6.50;99.90;;;;;;5030945;28;20577;-62
2021/01/28 04:54:18;;;;;;;2.30;1.73;;;6.70;99.90;;;;;;5030150;28;20697;-62
2021/01/28 04:56:44;;;;;;;2.30;1.67;;;6.70;99.90;;;;;;5030881;28;20210;-62
2021/01/28 04:59:17;;;;;;;2.13;1.80;;;6.90;99.90;;;;;;5030835;28;20210;-62
2021/01/28 05:01:43;;;;;;;2.70;2.37;;;7.00;99.90;;;;;;5030924;28;20217;-62
2021/01/28 05:04:13;;;;;;;3.40;3.00;;;7.10;99.90;;;;;;5030657;28;20226;-62
2021/01/28 05:06:40;;;;;;;4.63;3.80;;;7.20;99.90;;;;;;5030702;28;20264;-62
2021/01/28 05:09:07;;;;;;;3.90;3.43;;;7.30;99.90;;;;;;5030693;28;20210;-62
2021/01/28 05:11:36;;;;;;;3.20;2.43;;;7.30;99.90;;;;;;5030545;28;20265;-62
2021/01/28 05:14:17;;;;;;;3.90;3.20;;;7.40;99.90;;;;;;5030558;28;20503;-62
2021/01/28 05:16:46;;;;;;;2.80;2.30;;;7.40;99.90;;;;;;5030608;28;20255;-62
2021/01/28 05:19:32;;;;;;;2.63;2.43;;;7.50;99.90;;;;;;5030363;28;20206;-62
2021/01/28 05:22:06;;;;;;;3.07;2.40;;;7.50;99.90;;;;;;5030562;28;20213;-62
2021/01/28 05:24:37;;;;;;;2.23;2.03;;;7.50;99.90;;;;;;5030535;28;20230;-62
2021/01/28 05:27:13;;;;;;;2.30;2.10;;;7.50;99.90;;;;;;5030916;28;20211;-62
2021/01/28 05:29:41;;;;;;;2.50;2.20;;;7.40;99.90;;;;;;5030246;28;20740;-62
2021/01/28 05:32:17;;;;;;;3.40;2.43;;;7.40;99.90;;;;;;5030689;28;20210;-62
2021/01/28 05:34:43;;;;;;;2.63;2.43;;;7.30;99.90;;;;;;5030353;28;20202;-62
2021/01/28 05:37:17;;;;;;;3.77;2.90;;;7.30;99.90;;;;;;5030714;28;20207;-62
2021/01/28 05:39:44;;;;;;;6.27;2.30;;;7.30;99.90;;;;;;5030374;28;20209;-62
2021/01/28 05:42:22;;;;;;;2.90;2.53;;;7.30;99.90;;;;;;5030490;28;20217;-62
2021/01/28 05:44:49;;;;;;;3.87;2.90;;;7.20;99.90;;;;;;5030676;28;20203;-62
2021/01/28 05:47:25;;;;;;;3.70;2.43;;;7.10;99.90;;;;;;5030938;28;20210;-62
2021/01/28 05:49:51;;;;;;;3.40;2.47;;;6.90;99.90;;;;;;5032537;28;20206;-62
2021/01/28 05:52:20;;;;;;;3.17;2.50;;;6.90;99.90;;;;;;5033858;28;20388;-62
2021/01/28 05:55:04;;;;;;;3.17;2.57;;;6.80;99.90;;;;;;5033918;28;20210;-62
2021/01/28 05:57:37;;;;;;;4.07;2.50;;;6.60;99.90;;;;;;5034065;28;20214;-62
2021/01/28 06:00:11;;;;;;;3.30;2.63;;;6.60;99.90;;;;;;5033802;28;20213;-62
2021/01/28 06:02:52;;;;;;;3.47;3.00;;;6.50;99.90;;;;;;5033704;28;21619;-62
2021/01/28 06:05:29;;;;;;;4.57;3.63;;;6.30;99.90;;;;;;5033589;28;20216;-62
2021/01/28 06:08:36;;;;;;;4.30;3.30;;;6.30;99.90;;;;;;5033548;28;20244;-62
2021/01/28 06:11:26;;;;;;;5.33;4.40;;;6.40;99.90;;;;;;5013225;28;20210;-62
2021/01/28 06:14:34;;;;;;;5.73;3.90;;;6.40;99.90;;;;;;5027901;28;20701;-62
2021/01/28 06:17:19;;;;;;;5.20;3.73;;;6.20;99.90;;;;;;5009113;28;20352;-62
2021/01/28 06:20:00;;;;;;;12.90;8.70;;;6.10;99.90;;;;;;5033264;28;20257;-62
2021/01/28 06:22:38;;;;;;;6.43;4.77;;;6.10;99.90;;;;;;5033271;28;20202;-62
2021/01/28 06:25:28;;;;;;;7.53;4.33;;;6.10;99.90;;;;;;5033449;28;20206;-62
2021/01/28 06:28:22;;;;;;;5.40;4.07;;;5.90;99.90;;;;;;5033041;28;20202;-62
2021/01/28 06:30:56;;;;;;;5.80;4.37;;;5.70;99.90;;;;;;5031609;28;20210;-62
2021/01/28 06:34:01;;;;;;;7.60;6.47;;;5.70;99.90;;;;;;5033039;28;20237;-62
2021/01/28 06:36:40;;;;;;;5.67;4.47;;;5.70;99.90;;;;;;5032940;28;20236;-62
2021/01/28 06:39:18;;;;;;;6.43;5.20;;;5.70;99.90;;;;;;5033154;28;20206;-62
2021/01/28 06:41:52;;;;;;;6.70;5.53;;;5.70;99.90;;;;;;5033123;28;20455;-61
2021/01/28 06:44:23;;;;;;;6.17;4.73;;;5.60;99.90;;;;;;5032644;28;20237;-61
2021/01/28 06:46:54;;;;;;;6.37;4.80;;;5.60;99.90;;;;;;5033340;28;20211;-62
2021/01/28 06:49:31;;;;;;;5.67;4.67;;;5.60;99.90;;;;;;5033751;28;20217;-62
2021/01/28 06:52:09;;;;;;;5.70;4.47;;;5.40;99.90;;;;;;5032831;28;20205;-62
2021/01/28 06:54:45;;;;;;;5.70;5.10;;;5.30;99.90;;;;;;5032514;28;20713;-62
2021/01/28 06:57:21;;;;;;;5.90;4.63;;;5.30;99.90;;;;;;5032942;28;20585;-62
2021/01/28 06:59:57;;;;;;;6.30;5.60;;;5.10;99.90;;;;;;5032766;28;20217;-62
2021/01/28 07:02:36;;;;;;;7.57;5.70;;;5.10;99.90;;;;;;5032993;28;20186;-62
2021/01/28 07:05:26;;;;;;;6.13;5.50;;;5.10;99.90;;;;;;5032551;28;20673;-62
2021/01/28 07:07:58;;;;;;;6.30;5.13;;;5.20;99.90;;;;;;5032866;28;20221;-61
2021/01/28 07:10:34;;;;;;;7.13;5.20;;;5.30;99.90;;;;;;5032874;28;20213;-62
2021/01/28 07:13:02;;;;;;;6.30;5.50;;;5.30;99.90;;;;;;5033105;28;20260;-61
2021/01/28 07:15:29;;;;;;;6.00;5.40;;;5.40;99.90;;;;;;5032990;28;20302;-60
2021/01/28 07:18:00;;;;;;;6.90;5.83;;;5.30;99.90;;;;;;5033014;28;20241;-61
2021/01/28 07:20:31;;;;;;;5.97;5.10;;;5.30;99.90;;;;;;5032761;28;20210;-61
2021/01/28 07:23:19;;;;;;;5.17;4.60;;;5.30;99.90;;;;;;5032363;28;20229;-61
2021/01/28 07:25:50;;;;;;;6.17;5.03;;;5.40;99.90;;;;;;5032335;28;20259;-61
2021/01/28 07:28:28;;;;;;;6.87;5.67;;;5.50;99.90;;;;;;5032149;28;20233;-61
2021/01/28 07:31:41;;;;;;;6.17;4.97;;;5.60;99.90;;;;;;5032271;28;20214;-61
2021/01/28 07:34:11;;;;;;;8.50;7.60;;;5.50;99.90;;;;;;5030932;28;20449;-61
2021/01/28 07:36:44;;;;;;;9.87;6.80;;;5.60;99.90;;;;;;5032205;28;20221;-61
2021/01/28 07:39:37;;;;;;;7.73;6.73;;;5.70;99.90;;;;;;5032115;28;20210;-63
2021/01/28 07:42:08;;;;;;;8.77;5.87;;;5.70;99.90;;;;;;5031927;28;20297;-62
2021/01/28 07:44:46;;;;;;;6.63;5.67;;;5.70;99.90;;;;;;5031755;28;20230;-64
2021/01/28 07:47:48;;;;;;;9.57;6.40;;;5.80;99.90;;;;;;5031943;28;20210;-57
2021/01/28 07:50:40;;;;;;;9.40;7.30;;;6.00;99.90;;;;;;5032034;28;20548;-57
2021/01/28 07:53:36;;;;;;;7.10;5.70;;;6.10;99.90;;;;;;5029708;28;20349;-57
2021/01/28 07:56:02;;;;;;;7.90;5.57;;;6.20;99.90;;;;;;5031877;28;20641;-58
2021/01/28 07:58:32;;;;;;;5.53;5.00;;;6.40;99.90;;;;;;5032016;28;20674;-57
2021/01/28 08:01:04;;;;;;;7.10;5.30;;;6.50;99.90;;;;;;5031716;28;20202;-58
2021/01/28 08:03:34;;;;;;;5.90;4.73;;;6.60;99.90;;;;;;5031783;28;20292;-58
2021/01/28 08:06:05;;;;;;;6.30;5.00;;;6.90;99.90;;;;;;5031595;28;20205;-58
2021/01/28 08:08:32;;;;;;;5.23;4.33;;;7.00;99.90;;;;;;5032118;28;20229;-58
2021/01/28 08:11:17;;;;;;;5.70;4.70;;;7.00;99.90;;;;;;5031895;28;20264;-59
2021/01/28 08:13:44;;;;;;;5.53;4.43;;;6.90;99.90;;;;;;5032199;28;20280;-57
2021/01/28 08:16:17;;;;;;;6.20;4.80;;;6.90;99.90;;;;;;5032841;28;20214;-58
2021/01/28 08:18:44;;;;;;;6.60;4.63;;;7.10;99.90;;;;;;5033351;28;20206;-57
2021/01/28 08:21:13;;;;;;;8.63;4.50;;;7.00;99.90;;;;;;5032143;28;20206;-58
2021/01/28 08:23:43;;;;;;;5.03;4.50;;;7.00;99.90;;;;;;5031849;28;20710;-58
2021/01/28 08:26:11;;;;;;;6.47;3.90;;;7.00;99.90;;;;;;5032952;28;20202;-57
2021/01/28 08:28:39;;;;;;;4.47;3.73;;;6.80;99.90;;;;;;5032220;28;20225;-58
2021/01/28 08:31:17;;;;;;;4.47;4.07;;;6.80;99.90;;;;;;5031868;28;20214;-57
2021/01/28 08:33:45;;;;;;;4.93;4.33;;;6.90;99.90;;;;;;5031715;28;20229;-58
2021/01/28 08:36:21;;;;;;;5.00;4.10;;;6.90;99.90;;;;;;5031985;28;20214;-58
2021/01/28 08:38:49;;;;;;;4.33;3.90;;;6.90;99.90;;;;;;5031140;28;20268;-58
2021/01/28 08:41:19;;;;;;;4.63;3.77;;;6.90;99.90;;;;;;5031053;28;20202;-58
2021/01/28 08:43:46;;;;;;;4.60;3.73;;;6.90;99.90;;;;;;5031304;28;20241;-58
2021/01/28 08:46:18;;;;;;;5.30;3.93;;;6.90;99.90;;;;;;5031230;28;20228;-62
2021/01/28 08:48:45;;;;;;;3.83;3.20;;;7.00;99.90;;;;;;5030829;28;20348;-62
2021/01/28 08:51:18;;;;;;;5.67;3.83;;;7.10;99.90;;;;;;5030962;28;20206;-62
2021/01/28 08:53:55;;;;;;;5.63;4.23;;;7.20;99.90;;;;;;5030563;28;20222;-62
2021/01/28 08:56:27;;;;;;;9.33;3.87;;;7.20;99.90;;;;;;5030988;28;20259;-63
2021/01/28 08:58:54;;;;;;;3.97;3.57;;;7.20;99.90;;;;;;5030691;28;20206;-61
2021/01/28 09:01:20;;;;;;;4.30;3.70;;;7.20;99.90;;;;;;5030961;28;20210;-64
2021/01/28 09:03:54;;;;;;;4.37;3.60;;;7.20;99.90;;;;;;5030373;28;20787;-61
2021/01/28 09:06:20;;;;;;;5.00;3.80;;;7.40;99.90;;;;;;5030627;28;20324;-63
2021/01/28 09:08:58;;;;;;;4.37;3.20;;;7.50;99.90;;;;;;5030753;28;20207;-63
2021/01/28 09:11:27;;;;;;;4.13;3.30;;;7.60;99.90;;;;;;5030614;28;20584;-62
2021/01/28 09:14:06;;;;;;;3.60;2.60;;;7.50;99.90;;;;;;5030343;28;20230;-61
2021/01/28 09:16:33;;;;;;;5.13;3.60;;;7.50;99.90;;;;;;5030678;28;20202;-61
2021/01/28 09:19:09;;;;;;;4.50;3.60;;;7.50;99.90;;;;;;5030375;28;20216;-62
2021/01/28 09:21:40;;;;;;;7.23;4.53;;;7.50;99.90;;;;;;5030805;28;20206;-61
2021/01/28 09:24:18;;;;;;;6.57;4.20;;;7.60;99.90;;;;;;5033102;28;20634;-62
2021/01/28 09:26:46;;;;;;;6.73;4.30;;;7.80;99.90;;;;;;5034451;28;20255;-60
2021/01/28 09:29:17;;;;;;;3.90;3.40;;;8.00;99.90;;;;;;5034117;28;20217;-62
2021/01/28 09:31:44;;;;;;;8.33;4.90;;;8.10;99.90;;;;;;5035213;28;20202;-62
2021/01/28 09:34:13;;;;;;;4.73;3.63;;;8.20;99.90;;;;;;5034833;28;20725;-62
2021/01/28 09:36:40;;;;;;;4.50;2.77;;;8.30;99.90;;;;;;5034465;28;20217;-64
2021/01/28 09:39:12;;;;;;;3.33;2.17;;;8.40;99.90;;;;;;5034206;28;20207;-62
2021/01/28 09:41:42;;;;;;;2.13;1.53;;;8.30;99.90;;;;;;5034174;28;20206;-62
2021/01/28 09:44:29;;;;;;;2.83;2.57;;;8.30;99.90;;;;;;5033861;28;20396;-63
2021/01/28 09:47:05;;;;;;;1.93;1.60;;;8.20;99.90;;;;;;5033959;28;20581;-62
2021/01/28 09:49:31;;;;;;;1.60;1.30;;;8.20;99.90;;;;;;5033995;28;20245;-63
2021/01/28 09:51:58;;;;;;;1.87;1.30;;;8.20;99.90;;;;;;5034024;28;20210;-62
2021/01/28 09:54:25;;;;;;;2.27;1.50;;;8.20;99.90;;;;;;5033636;28;20376;-63
2021/01/28 09:56:51;;;;;;;1.87;1.27;;;8.30;99.90;;;;;;5033881;28;20210;-62
2021/01/28 09:59:17;;;;;;;1.43;1.30;;;8.30;99.90;;;;;;5033706;28;20214;-62
2021/01/28 10:01:46;;;;;;;2.63;1.50;;;8.40;99.90;;;;;;5033728;28;20214;-62
2021/01/28 10:04:14;;;;;;;2.90;1.20;;;8.30;99.90;;;;;;5033346;28;20218;-63
2021/01/28 10:06:41;;;;;;;1.77;1.47;;;8.40;99.90;;;;;;5033216;28;20710;-64
2021/01/28 10:09:08;;;;;;;3.60;1.63;;;8.40;99.90;;;;;;5033377;28;20666;-63
2021/01/28 10:11:34;;;;;;;2.33;1.50;;;8.50;99.90;;;;;;5033728;28;20590;-62
2021/01/28 10:14:01;;;;;;;1.93;1.43;;;8.60;99.90;;;;;;5033128;28;20697;-62
2021/01/28 10:16:28;;;;;;;2.47;1.53;;;8.50;99.90;;;;;;5033480;28;20202;-62
2021/01/28 10:18:55;;;;;;;3.63;2.00;;;8.70;99.90;;;;;;5033124;28;20300;-63
2021/01/28 10:21:21;;;;;;;1.67;1.30;;;8.80;99.90;;;;;;5033161;28;20214;-62
2021/01/28 10:23:47;;;;;;;2.27;1.60;;;8.80;99.90;;;;;;5033363;28;20237;-63
2021/01/28 10:26:14;;;;;;;1.97;1.70;;;8.80;99.90;;;;;;5033635;28;20210;-65
2021/01/28 10:28:40;;;;;;;1.60;1.40;;;8.70;99.90;;;;;;5033115;28;20613;-63
2021/01/28 10:31:06;;;;;;;3.77;1.83;;;8.80;99.90;;;;;;5033302;28;20217;-64
2021/01/28 10:33:36;;;;;;;2.20;1.70;;;8.80;99.90;;;;;;5032963;28;20828;-63
2021/01/28 10:36:04;;;;;;;3.67;1.80;;;8.80;99.90;;;;;;5031987;28;20693;-62
2021/01/28 10:38:30;;;;;;;2.30;1.90;;;9.00;99.90;;;;;;5032915;28;20206;-61
2021/01/28 10:40:57;;;;;;;2.70;2.20;;;9.10;99.90;;;;;;5033125;28;20622;-64
2021/01/28 10:43:23;;;;;;;6.77;2.97;;;9.10;99.90;;;;;;5032489;28;20237;-64
2021/01/28 10:45:50;;;;;;;12.60;5.27;;;9.30;99.90;;;;;;5032746;28;20202;-61
2021/01/28 10:48:17;;;;;;;4.80;2.67;;;9.40;99.90;;;;;;5032538;28;20207;-63
2021/01/28 10:50:44;;;;;;;2.23;1.70;;;9.50;99.90;;;;;;5032783;28;20251;-63
2021/01/28 10:53:11;;;;;;;4.73;2.20;;;9.50;99.90;;;;;;5032812;28;20230;-62
2021/01/28 10:55:38;;;;;;;2.30;1.50;;;9.40;99.90;;;;;;5033017;28;20206;-64
2021/01/28 10:58:04;;;;;;;2.90;2.27;;;9.40;99.90;;;;;;5032901;28;20210;-62
2021/01/28 11:00:32;;;;;;;2.93;1.70;;;9.30;99.90;;;;;;5032913;28;20206;-62
2021/01/28 11:02:59;;;;;;;2.90;1.83;;;9.40;99.90;;;;;;5032678;28;20229;-62
2021/01/28 11:05:28;;;;;;;2.17;1.70;;;9.40;99.90;;;;;;5032714;28;20310;-61
2021/01/28 11:07:54;;;;;;;2.03;1.60;;;9.60;99.90;;;;;;5032918;28;20206;-63
2021/01/28 11:10:23;;;;;;;2.20;1.73;;;9.50;99.90;;;;;;5033097;28;20210;-61
2021/01/28 11:12:49;;;;;;;1.90;1.40;;;9.70;99.90;;;;;;5033225;28;20222;-61
2021/01/28 11:15:16;;;;;;;3.43;1.77;;;9.70;99.90;;;;;;5033027;28;20202;-62
2021/01/28 11:17:42;;;;;;;73.47;58.53;;;9.70;99.90;;;;;;5032226;28;20702;-62
2021/01/28 11:20:11;;;;;;;3.77;1.77;;;9.80;99.90;;;;;;5032477;28;20210;-62
2021/01/28 11:22:37;;;;;;;2.20;1.50;;;9.70;99.90;;;;;;5032379;28;20206;-64
2021/01/28 11:25:06;;;;;;;3.73;1.90;;;9.70;99.90;;;;;;5032387;28;20275;-62
2021/01/28 11:27:33;;;;;;;1.63;1.17;;;9.70;99.90;;;;;;5032431;28;20253;-62
2021/01/28 11:29:59;;;;;;;2.22;1.50;;;9.80;99.90;;;;;;5024043;28;20489;-61
2021/01/28 11:32:25;;;;;;;2.10;1.30;;;9.80;99.90;;;;;;5012114;28;20211;-61
2021/01/28 11:34:52;;;;;;;1.77;1.20;;;9.50;99.90;;;;;;5012238;28;20237;-61
2021/01/28 11:37:18;;;;;;;1.47;1.00;;;9.50;99.90;;;;;;5012421;28;20207;-61
2021/01/28 11:39:44;;;;;;;1.80;1.17;;;9.60;99.90;;;;;;5012202;28;20261;-62
2021/01/28 11:42:10;;;;;;;1.37;1.20;;;9.60;99.90;;;;;;5012410;28;20305;-61
2021/01/28 11:44:37;;;;;;;1.67;1.17;;;9.70;99.90;;;;;;5011210;28;20230;-61
2021/01/28 11:47:03;;;;;;;1.57;1.20;;;9.80;99.90;;;;;;5010915;28;20203;-61
2021/01/28 11:49:30;;;;;;;1.60;1.00;;;9.80;99.90;;;;;;5011984;28;20211;-61
2021/01/28 11:51:56;;;;;;;1.43;1.00;;;9.90;99.90;;;;;;5012482;28;20218;-61
2021/01/28 11:54:22;;;;;;;4.03;1.30;;;10.00;99.90;;;;;;5011848;28;20285;-61
2021/01/28 11:56:48;;;;;;;3.87;0.97;;;10.20;99.90;;;;;;5012446;28;20207;-61
2021/01/28 11:59:14;;;;;;;4.47;1.20;;;10.10;99.90;;;;;;5011797;28;20245;-61
2021/01/28 12:01:41;;;;;;;1.87;0.90;;;10.00;99.90;;;;;;5012004;28;20207;-61
2021/01/28 12:04:07;;;;;;;1.50;1.13;;;10.00;99.90;;;;;;5011981;28;20227;-61
2021/01/28 12:06:34;;;;;;;1.53;1.10;;;10.00;99.90;;;;;;5012056;28;20210;-61
2021/01/28 12:09:00;;;;;;;1.43;1.10;;;10.00;99.90;;;;;;5011673;28;20207;-61
2021/01/28 12:11:26;;;;;;;1.70;0.97;;;10.10;99.90;;;;;;5011798;28;20593;-62
2021/01/28 12:13:52;;;;;;;1.13;0.90;;;10.30;99.90;;;;;;5011087;28;20227;-61
2021/01/28 12:16:18;;;;;;;1.67;1.20;;;10.10;99.90;;;;;;5011744;28;20211;-62
2021/01/28 12:18:45;;;;;;;2.10;1.00;;;10.20;99.90;;;;;;5011738;28;20214;-62
2021/01/28 12:21:12;;;;;;;2.03;1.43;;;10.30;99.90;;;;;;5011835;28;20237;-62
2021/01/28 12:23:38;;;;;;;2.90;1.00;;;10.20;99.90;;;;;;5011718;28;20234;-61
2021/01/28 12:26:04;;;;;;;3.80;1.50;;;10.30;99.90;;;;;;5011568;28;20207;-61
2021/01/28 12:28:30;;;;;;;2.00;1.20;;;10.40;99.90;;;;;;5011340;28;20261;-60
2021/01/28 12:30:56;;;;;;;1.73;1.07;;;10.40;99.90;;;;;;5011747;28;20210;-62
2021/01/28 12:33:23;;;;;;;2.50;0.80;;;10.40;99.90;;;;;;5011316;28;20231;-61
2021/01/28 12:35:50;;;;;;;1.50;1.10;;;10.40;99.90;;;;;;5011745;28;20207;-61
2021/01/28 12:38:16;;;;;;;2.50;1.20;;;10.30;99.90;;;;;;5011372;28;20210;-61
2021/01/28 12:40:42;;;;;;;1.53;1.10;;;10.30;99.90;;;;;;5011330;28;20214;-61
2021/01/28 12:43:08;;;;;;;1.03;0.70;;;10.30;99.90;;;;;;5010690;28;20230;-61
2021/01/28 12:45:35;;;;;;;1.30;1.00;;;10.50;99.90;;;;;;5011412;28;20211;-61
2021/01/28 12:48:01;;;;;;;3.43;1.10;;;10.70;99.90;;;;;;5011374;28;20207;-61
2021/01/28 12:50:28;;;;;;;1.53;1.27;;;10.90;99.90;;;;;;5011534;28;20210;-61
2021/01/28 12:52:55;;;;;;;1.17;0.90;;;11.10;99.90;;;;;;5011139;28;20231;-60
2021/01/28 12:55:21;;;;;;;1.60;0.97;;;11.20;99.90;;;;;;5011120;28;20219;-61
2021/01/28 12:57:47;;;;;;;1.53;0.90;;;11.40;99.90;;;;;;5011749;28;20234;-61
2021/01/28 13:00:16;;;;;;;3.13;1.00;;;11.40;99.90;;;;;;5015371;28;20207;-61
2021/01/28 13:02:43;;;;;;;2.37;1.07;;;11.30;99.90;;;;;;5015296;28;20582;-61
2021/01/28 13:05:10;;;;;;;1.60;1.30;;;11.20;99.90;;;;;;5015048;28;20206;-61
2021/01/28 13:07:36;;;;;;;2.23;1.60;;;11.30;99.90;;;;;;5015060;28;20207;-61
2021/01/28 13:10:05;;;;;;;2.03;1.30;;;11.20;99.90;;;;;;5015441;28;20214;-61